sensor_id;sensor_type;location;lat;lon;timestamp;pressure;altitude;pressure_sealevel;temperature;humidity
76352;BME280;65179;47.786;19.138;2023-09-30T00:00:44;100821.50;;;15.82;73.38
76352;BME280;65179;47.786;19.138;2023-09-30T00:03:09;100822.19;;;15.89;72.67
76352;BME280;65179;47.786;19.138;2023-09-30T00:05:37;100832.56;;;15.87;72.47
76352;BME280;65179;47.786;19.138;2023-09-30T00:08:03;100829.31;;;15.90;72.41
76352;BME280;65179;47.786;19.138;2023-09-30T00:10:29;100828.00;;;15.92;72.15
76352;BME280;65179;47.786;19.138;2023-09-30T00:12:58;100827.19;;;15.92;71.89
76352;BME280;65179;47.786;19.138;2023-09-30T00:15:26;100821.09;;;15.90;72.01
76352;BME280;65179;47.786;19.138;2023-09-30T00:17:52;100816.31;;;15.69;72.39
76352;BME280;65179;47.786;19.138;2023-09-30T00:20:17;100819.31;;;15.67;72.56
76352;BME280;65179;47.786;19.138;2023-09-30T00:22:43;100808.50;;;15.61;72.66
76352;BME280;65179;47.786;19.138;2023-09-30T00:25:09;100815.16;;;15.53;72.92
76352;BME280;65179;47.786;19.138;2023-09-30T00:27:35;100813.47;;;15.64;72.37
76352;BME280;65179;47.786;19.138;2023-09-30T00:30:00;100807.78;;;15.42;73.20
76352;BME280;65179;47.786;19.138;2023-09-30T00:32:26;100804.47;;;15.52;73.04
76352;BME280;65179;47.786;19.138;2023-09-30T00:34:51;100806.63;;;15.50;73.00
76352;BME280;65179;47.786;19.138;2023-09-30T00:37:19;100806.37;;;15.40;73.18
76352;BME280;65179;47.786;19.138;2023-09-30T00:39:44;100807.09;;;15.47;73.30
76352;BME280;65179;47.786;19.138;2023-09-30T00:42:10;100806.50;;;15.45;73.01
76352;BME280;65179;47.786;19.138;2023-09-30T00:44:36;100802.94;;;15.21;73.61
76352;BME280;65179;47.786;19.138;2023-09-30T00:47:01;100801.19;;;15.03;74.32
76352;BME280;65179;47.786;19.138;2023-09-30T00:49:28;100808.16;;;15.23;73.89
76352;BME280;65179;47.786;19.138;2023-09-30T00:51:54;100801.62;;;15.24;73.46
76352;BME280;65179;47.786;19.138;2023-09-30T00:54:21;100806.13;;;15.30;73.85
76352;BME280;65179;47.786;19.138;2023-09-30T00:56:50;100796.37;;;15.45;73.27
76352;BME280;65179;47.786;19.138;2023-09-30T00:59:16;100788.63;;;15.42;73.14
76352;BME280;65179;47.786;19.138;2023-09-30T01:01:43;100791.03;;;15.27;73.72
76352;BME280;65179;47.786;19.138;2023-09-30T01:04:10;100790.19;;;15.38;73.61
76352;BME280;65179;47.786;19.138;2023-09-30T01:06:36;100781.12;;;15.38;73.55
76352;BME280;65179;47.786;19.138;2023-09-30T01:09:01;100785.94;;;15.31;73.32
76352;BME280;65179;47.786;19.138;2023-09-30T01:11:28;100789.63;;;15.13;74.13
76352;BME280;65179;47.786;19.138;2023-09-30T01:13:53;100791.41;;;15.19;74.17
76352;BME280;65179;47.786;19.138;2023-09-30T01:16:20;100787.25;;;15.16;74.02
76352;BME280;65179;47.786;19.138;2023-09-30T01:18:46;100785.81;;;15.26;73.69
76352;BME280;65179;47.786;19.138;2023-09-30T01:21:11;100782.41;;;14.95;74.73
76352;BME280;65179;47.786;19.138;2023-09-30T01:23:37;100798.34;;;14.98;74.65
76352;BME280;65179;47.786;19.138;2023-09-30T01:26:11;100781.56;;;14.95;74.32
76352;BME280;65179;47.786;19.138;2023-09-30T01:28:38;100792.97;;;15.03;74.27
76352;BME280;65179;47.786;19.138;2023-09-30T01:31:03;100791.06;;;15.15;73.83
76352;BME280;65179;47.786;19.138;2023-09-30T01:33:30;100804.28;;;14.95;74.44
76352;BME280;65179;47.786;19.138;2023-09-30T01:35:56;100800.38;;;14.68;75.28
76352;BME280;65179;47.786;19.138;2023-09-30T01:38:21;100801.91;;;14.87;74.92
76352;BME280;65179;47.786;19.138;2023-09-30T01:40:47;100798.22;;;14.93;74.75
76352;BME280;65179;47.786;19.138;2023-09-30T01:43:13;100789.87;;;14.88;75.08
76352;BME280;65179;47.786;19.138;2023-09-30T01:45:40;100782.06;;;14.92;74.82
76352;BME280;65179;47.786;19.138;2023-09-30T01:48:06;100789.28;;;15.09;74.40
76352;BME280;65179;47.786;19.138;2023-09-30T01:50:31;100784.88;;;14.97;74.71
76352;BME280;65179;47.786;19.138;2023-09-30T01:52:57;100781.94;;;14.98;74.31
76352;BME280;65179;47.786;19.138;2023-09-30T01:55:22;100785.38;;;14.94;74.67
76352;BME280;65179;47.786;19.138;2023-09-30T01:57:48;100768.97;;;14.94;74.14
76352;BME280;65179;47.786;19.138;2023-09-30T02:00:13;100784.41;;;14.88;74.55
76352;BME280;65179;47.786;19.138;2023-09-30T02:02:39;100776.94;;;14.72;74.92
76352;BME280;65179;47.786;19.138;2023-09-30T02:05:05;100788.22;;;14.76;74.74
76352;BME280;65179;47.786;19.138;2023-09-30T02:07:33;100783.47;;;14.71;74.98
76352;BME280;65179;47.786;19.138;2023-09-30T02:09:59;100788.22;;;14.64;74.93
76352;BME280;65179;47.786;19.138;2023-09-30T02:12:26;100792.16;;;14.68;75.06
76352;BME280;65179;47.786;19.138;2023-09-30T02:14:53;100778.97;;;14.65;74.98
76352;BME280;65179;47.786;19.138;2023-09-30T02:17:18;100788.69;;;14.73;74.67
76352;BME280;65179;47.786;19.138;2023-09-30T02:19:44;100780.50;;;14.61;74.68
76352;BME280;65179;47.786;19.138;2023-09-30T02:22:09;100788.72;;;14.61;74.73
76352;BME280;65179;47.786;19.138;2023-09-30T02:24:34;100788.56;;;14.56;75.30
76352;BME280;65179;47.786;19.138;2023-09-30T02:27:00;100786.94;;;14.55;75.53
76352;BME280;65179;47.786;19.138;2023-09-30T02:29:25;100783.56;;;14.53;75.66
76352;BME280;65179;47.786;19.138;2023-09-30T02:31:51;100778.09;;;14.53;75.48
76352;BME280;65179;47.786;19.138;2023-09-30T02:34:16;100782.03;;;14.46;76.06
76352;BME280;65179;47.786;19.138;2023-09-30T02:36:42;100780.84;;;14.41;75.96
76352;BME280;65179;47.786;19.138;2023-09-30T02:39:08;100781.12;;;14.22;76.48
76352;BME280;65179;47.786;19.138;2023-09-30T02:41:36;100770.66;;;14.19;76.05
76352;BME280;65179;47.786;19.138;2023-09-30T02:44:03;100782.06;;;14.27;75.82
76352;BME280;65179;47.786;19.138;2023-09-30T02:46:28;100772.44;;;14.13;76.13
76352;BME280;65179;47.786;19.138;2023-09-30T02:48:54;100781.56;;;14.07;76.41
76352;BME280;65179;47.786;19.138;2023-09-30T02:51:19;100787.66;;;14.21;76.17
76352;BME280;65179;47.786;19.138;2023-09-30T02:53:45;100788.16;;;14.29;75.77
76352;BME280;65179;47.786;19.138;2023-09-30T02:56:11;100787.38;;;14.29;75.88
76352;BME280;65179;47.786;19.138;2023-09-30T02:58:37;100791.75;;;14.30;76.13
76352;BME280;65179;47.786;19.138;2023-09-30T03:01:03;100787.84;;;14.37;75.89
76352;BME280;65179;47.786;19.138;2023-09-30T03:03:29;100786.28;;;14.30;76.06
76352;BME280;65179;47.786;19.138;2023-09-30T03:05:56;100787.25;;;14.35;75.60
76352;BME280;65179;47.786;19.138;2023-09-30T03:08:22;100779.94;;;14.18;76.05
76352;BME280;65179;47.786;19.138;2023-09-30T03:10:49;100779.56;;;14.14;76.51
76352;BME280;65179;47.786;19.138;2023-09-30T03:13:14;100785.97;;;14.08;76.74
76352;BME280;65179;47.786;19.138;2023-09-30T03:15:40;100788.09;;;14.06;76.96
76352;BME280;65179;47.786;19.138;2023-09-30T03:18:05;100790.06;;;13.88;77.64
76352;BME280;65179;47.786;19.138;2023-09-30T03:20:31;100792.78;;;13.88;77.35
76352;BME280;65179;47.786;19.138;2023-09-30T03:22:56;100796.72;;;13.92;76.95
76352;BME280;65179;47.786;19.138;2023-09-30T03:25:22;100802.19;;;13.92;77.20
76352;BME280;65179;47.786;19.138;2023-09-30T03:27:48;100794.44;;;13.89;77.30
76352;BME280;65179;47.786;19.138;2023-09-30T03:30:15;100796.56;;;13.87;77.73
76352;BME280;65179;47.786;19.138;2023-09-30T03:32:41;100799.28;;;13.87;78.26
76352;BME280;65179;47.786;19.138;2023-09-30T03:35:09;100790.31;;;13.98;77.77
76352;BME280;65179;47.786;19.138;2023-09-30T03:37:45;100803.03;;;14.04;77.65
76352;BME280;65179;47.786;19.138;2023-09-30T03:40:11;100797.06;;;13.84;77.77
76352;BME280;65179;47.786;19.138;2023-09-30T03:42:42;100800.66;;;13.96;77.71
76352;BME280;65179;47.786;19.138;2023-09-30T03:45:09;100806.69;;;13.98;78.14
76352;BME280;65179;47.786;19.138;2023-09-30T03:47:36;100801.47;;;13.96;77.86
76352;BME280;65179;47.786;19.138;2023-09-30T03:50:02;100801.44;;;13.85;78.22
76352;BME280;65179;47.786;19.138;2023-09-30T03:52:29;100797.25;;;13.82;78.19
76352;BME280;65179;47.786;19.138;2023-09-30T03:54:54;100800.38;;;13.86;78.06
76352;BME280;65179;47.786;19.138;2023-09-30T03:57:20;100791.88;;;13.76;78.11
76352;BME280;65179;47.786;19.138;2023-09-30T03:59:45;100803.47;;;13.59;78.53
76352;BME280;65179;47.786;19.138;2023-09-30T04:02:11;100801.69;;;13.65;78.41
76352;BME280;65179;47.786;19.138;2023-09-30T04:04:37;100796.91;;;13.60;78.29
76352;BME280;65179;47.786;19.138;2023-09-30T04:07:02;100796.16;;;13.72;78.29
76352;BME280;65179;47.786;19.138;2023-09-30T04:09:31;100797.81;;;13.73;77.94
76352;BME280;65179;47.786;19.138;2023-09-30T04:11:57;100804.59;;;13.52;79.02
76352;BME280;65179;47.786;19.138;2023-09-30T04:14:22;100800.75;;;13.41;79.09
76352;BME280;65179;47.786;19.138;2023-09-30T04:16:48;100795.12;;;13.54;79.06
76352;BME280;65179;47.786;19.138;2023-09-30T04:19:13;100794.44;;;13.59;78.53
76352;BME280;65179;47.786;19.138;2023-09-30T04:21:39;100791.72;;;13.59;78.22
76352;BME280;65179;47.786;19.138;2023-09-30T04:24:05;100791.84;;;13.64;78.39
76352;BME280;65179;47.786;19.138;2023-09-30T04:26:32;100793.31;;;13.48;79.19
76352;BME280;65179;47.786;19.138;2023-09-30T04:28:57;100796.31;;;13.58;78.58
76352;BME280;65179;47.786;19.138;2023-09-30T04:31:23;100795.88;;;13.61;78.38
76352;BME280;65179;47.786;19.138;2023-09-30T04:33:49;100793.84;;;13.57;78.56
76352;BME280;65179;47.786;19.138;2023-09-30T04:36:16;100799.37;;;13.50;78.90
76352;BME280;65179;47.786;19.138;2023-09-30T04:38:42;100799.81;;;13.47;78.83
76352;BME280;65179;47.786;19.138;2023-09-30T04:41:08;100795.72;;;13.56;78.57
76352;BME280;65179;47.786;19.138;2023-09-30T04:43:34;100794.84;;;13.44;78.68
76352;BME280;65179;47.786;19.138;2023-09-30T04:46:00;100802.41;;;13.42;79.00
76352;BME280;65179;47.786;19.138;2023-09-30T04:48:26;100802.41;;;13.42;79.04
76352;BME280;65179;47.786;19.138;2023-09-30T04:50:52;100794.53;;;13.34;79.39
76352;BME280;65179;47.786;19.138;2023-09-30T04:53:18;100803.19;;;13.31;79.30
76352;BME280;65179;47.786;19.138;2023-09-30T04:55:44;100794.16;;;13.31;79.57
76352;BME280;65179;47.786;19.138;2023-09-30T04:58:10;100806.44;;;13.22;80.21
76352;BME280;65179;47.786;19.138;2023-09-30T05:00:35;100816.06;;;13.24;79.98
76352;BME280;65179;47.786;19.138;2023-09-30T05:03:01;100802.72;;;13.16;79.99
76352;BME280;65179;47.786;19.138;2023-09-30T05:05:26;100827.50;;;13.33;79.76
76352;BME280;65179;47.786;19.138;2023-09-30T05:07:53;100831.34;;;13.43;79.59
76352;BME280;65179;47.786;19.138;2023-09-30T05:10:19;100830.06;;;13.46;79.39
76352;BME280;65179;47.786;19.138;2023-09-30T05:12:45;100830.00;;;13.52;78.90
76352;BME280;65179;47.786;19.138;2023-09-30T05:15:15;100825.28;;;13.59;78.73
76352;BME280;65179;47.786;19.138;2023-09-30T05:17:42;100814.81;;;13.56;78.86
76352;BME280;65179;47.786;19.138;2023-09-30T05:20:10;100823.44;;;13.72;78.86
76352;BME280;65179;47.786;19.138;2023-09-30T05:22:38;100831.56;;;13.78;78.68
76352;BME280;65179;47.786;19.138;2023-09-30T05:25:04;100826.31;;;13.77;79.68
76352;BME280;65179;47.786;19.138;2023-09-30T05:27:30;100829.28;;;13.75;79.80
76352;BME280;65179;47.786;19.138;2023-09-30T05:29:55;100821.28;;;13.62;80.50
76352;BME280;65179;47.786;19.138;2023-09-30T05:32:21;100831.97;;;13.63;81.41
76352;BME280;65179;47.786;19.138;2023-09-30T05:34:47;100835.88;;;13.67;82.32
76352;BME280;65179;47.786;19.138;2023-09-30T05:37:13;100841.34;;;13.86;80.29
76352;BME280;65179;47.786;19.138;2023-09-30T05:39:40;100832.91;;;13.87;80.46
76352;BME280;65179;47.786;19.138;2023-09-30T05:42:05;100834.84;;;13.98;80.32
76352;BME280;65179;47.786;19.138;2023-09-30T05:44:32;100833.47;;;14.19;80.25
76352;BME280;65179;47.786;19.138;2023-09-30T05:46:57;100836.31;;;14.12;81.04
76352;BME280;65179;47.786;19.138;2023-09-30T05:49:23;100841.31;;;14.33;79.64
76352;BME280;65179;47.786;19.138;2023-09-30T05:51:49;100833.91;;;14.34;80.50
76352;BME280;65179;47.786;19.138;2023-09-30T05:54:16;100822.78;;;14.47;80.40
76352;BME280;65179;47.786;19.138;2023-09-30T05:56:41;100824.25;;;14.61;80.31
76352;BME280;65179;47.786;19.138;2023-09-30T05:59:09;100829.94;;;14.48;80.68
76352;BME280;65179;47.786;19.138;2023-09-30T06:01:34;100838.09;;;14.36;82.81
76352;BME280;65179;47.786;19.138;2023-09-30T06:04:01;100832.91;;;14.58;81.95
76352;BME280;65179;47.786;19.138;2023-09-30T06:06:27;100828.75;;;14.67;81.57
76352;BME280;65179;47.786;19.138;2023-09-30T06:08:58;100831.75;;;14.66;81.65
76352;BME280;65179;47.786;19.138;2023-09-30T06:11:24;100844.81;;;14.75;82.01
76352;BME280;65179;47.786;19.138;2023-09-30T06:13:56;100836.03;;;14.85;80.96
76352;BME280;65179;47.786;19.138;2023-09-30T06:16:24;100839.69;;;14.90;81.90
76352;BME280;65179;47.786;19.138;2023-09-30T06:18:51;100836.97;;;14.90;81.42
76352;BME280;65179;47.786;19.138;2023-09-30T06:21:17;100830.44;;;14.91;81.82
76352;BME280;65179;47.786;19.138;2023-09-30T06:23:48;100844.84;;;14.98;81.49
76352;BME280;65179;47.786;19.138;2023-09-30T06:26:17;100843.37;;;15.07;81.10
76352;BME280;65179;47.786;19.138;2023-09-30T06:28:43;100837.78;;;15.14;81.25
76352;BME280;65179;47.786;19.138;2023-09-30T06:31:09;100845.78;;;15.15;80.94
76352;BME280;65179;47.786;19.138;2023-09-30T06:33:36;100845.41;;;15.24;80.65
76352;BME280;65179;47.786;19.138;2023-09-30T06:36:03;100847.56;;;15.22;81.21
76352;BME280;65179;47.786;19.138;2023-09-30T06:38:32;100849.22;;;14.99;81.85
76352;BME280;65179;47.786;19.138;2023-09-30T06:40:58;100839.72;;;15.13;81.21
76352;BME280;65179;47.786;19.138;2023-09-30T06:43:25;100837.22;;;15.24;80.28
76352;BME280;65179;47.786;19.138;2023-09-30T06:45:50;100856.38;;;15.35;80.07
76352;BME280;65179;47.786;19.138;2023-09-30T06:48:15;100861.13;;;15.40;79.75
76352;BME280;65179;47.786;19.138;2023-09-30T06:50:44;100838.84;;;15.36;79.29
76352;BME280;65179;47.786;19.138;2023-09-30T06:53:11;100860.87;;;15.53;78.77
76352;BME280;65179;47.786;19.138;2023-09-30T06:55:38;100858.94;;;15.65;78.39
76352;BME280;65179;47.786;19.138;2023-09-30T06:58:05;100862.28;;;15.67;78.52
76352;BME280;65179;47.786;19.138;2023-09-30T07:00:33;100869.62;;;15.78;78.31
76352;BME280;65179;47.786;19.138;2023-09-30T07:02:59;100865.59;;;15.80;78.45
76352;BME280;65179;47.786;19.138;2023-09-30T07:05:24;100852.69;;;15.81;78.38
76352;BME280;65179;47.786;19.138;2023-09-30T07:07:50;100867.34;;;15.86;78.72
76352;BME280;65179;47.786;19.138;2023-09-30T07:10:16;100863.28;;;15.89;78.67
76352;BME280;65179;47.786;19.138;2023-09-30T07:12:41;100859.25;;;15.91;78.54
76352;BME280;65179;47.786;19.138;2023-09-30T07:15:08;100866.69;;;15.96;78.51
76352;BME280;65179;47.786;19.138;2023-09-30T07:17:33;100867.31;;;15.98;78.65
76352;BME280;65179;47.786;19.138;2023-09-30T07:19:59;100866.91;;;16.06;78.68
76352;BME280;65179;47.786;19.138;2023-09-30T07:22:25;100871.66;;;16.11;78.58
76352;BME280;65179;47.786;19.138;2023-09-30T07:24:50;100867.09;;;16.16;78.58
76352;BME280;65179;47.786;19.138;2023-09-30T07:27:16;100868.38;;;16.25;78.57
76352;BME280;65179;47.786;19.138;2023-09-30T07:29:42;100871.13;;;16.25;78.52
76352;BME280;65179;47.786;19.138;2023-09-30T07:32:08;100869.06;;;16.32;78.05
76352;BME280;65179;47.786;19.138;2023-09-30T07:34:34;100871.50;;;16.45;77.95
76352;BME280;65179;47.786;19.138;2023-09-30T07:37:00;100880.03;;;16.32;78.40
76352;BME280;65179;47.786;19.138;2023-09-30T07:39:25;100877.31;;;16.49;77.81
76352;BME280;65179;47.786;19.138;2023-09-30T07:41:51;100881.69;;;16.61;77.68
76352;BME280;65179;47.786;19.138;2023-09-30T07:44:16;100880.19;;;16.71;77.22
76352;BME280;65179;47.786;19.138;2023-09-30T07:46:42;100876.38;;;16.72;77.60
76352;BME280;65179;47.786;19.138;2023-09-30T07:49:11;100878.53;;;16.70;77.59
76352;BME280;65179;47.786;19.138;2023-09-30T07:51:37;100878.69;;;16.96;76.82
76352;BME280;65179;47.786;19.138;2023-09-30T07:54:05;100881.09;;;17.09;76.25
76352;BME280;65179;47.786;19.138;2023-09-30T07:56:30;100884.53;;;17.16;75.86
76352;BME280;65179;47.786;19.138;2023-09-30T07:58:56;100882.66;;;17.38;74.98
76352;BME280;65179;47.786;19.138;2023-09-30T08:01:21;100875.50;;;17.54;74.06
76352;BME280;65179;47.786;19.138;2023-09-30T08:03:47;100879.12;;;17.60;73.58
76352;BME280;65179;47.786;19.138;2023-09-30T08:06:13;100877.09;;;17.72;72.73
76352;BME280;65179;47.786;19.138;2023-09-30T08:08:39;100883.69;;;17.92;72.55
76352;BME280;65179;47.786;19.138;2023-09-30T08:11:05;100889.19;;;17.92;73.12
76352;BME280;65179;47.786;19.138;2023-09-30T08:13:34;100885.47;;;18.03;73.28
76352;BME280;65179;47.786;19.138;2023-09-30T08:16:00;100888.06;;;18.15;73.91
76352;BME280;65179;47.786;19.138;2023-09-30T08:18:25;100897.63;;;18.07;74.60
76352;BME280;65179;47.786;19.138;2023-09-30T08:20:51;100890.81;;;18.15;74.10
76352;BME280;65179;47.786;19.138;2023-09-30T08:23:16;100894.47;;;18.21;73.88
76352;BME280;65179;47.786;19.138;2023-09-30T08:25:42;100890.03;;;18.19;73.62
76352;BME280;65179;47.786;19.138;2023-09-30T08:28:07;100895.09;;;18.28;73.38
76352;BME280;65179;47.786;19.138;2023-09-30T08:30:35;100890.22;;;18.35;73.46
76352;BME280;65179;47.786;19.138;2023-09-30T08:33:01;100892.00;;;18.46;73.20
76352;BME280;65179;47.786;19.138;2023-09-30T08:35:29;100899.22;;;18.52;73.17
76352;BME280;65179;47.786;19.138;2023-09-30T08:37:54;100892.44;;;18.59;73.15
76352;BME280;65179;47.786;19.138;2023-09-30T08:40:20;100888.34;;;18.67;73.34
76352;BME280;65179;47.786;19.138;2023-09-30T08:42:50;100887.91;;;18.75;72.78
76352;BME280;65179;47.786;19.138;2023-09-30T08:45:16;100887.16;;;18.84;71.46
76352;BME280;65179;47.786;19.138;2023-09-30T08:47:43;100885.53;;;18.88;71.30
76352;BME280;65179;47.786;19.138;2023-09-30T08:50:09;100874.28;;;18.95;70.37
76352;BME280;65179;47.786;19.138;2023-09-30T08:52:38;100870.28;;;19.08;69.54
76352;BME280;65179;47.786;19.138;2023-09-30T08:55:04;100878.09;;;19.26;69.62
76352;BME280;65179;47.786;19.138;2023-09-30T08:57:30;100880.13;;;19.35;68.09
76352;BME280;65179;47.786;19.138;2023-09-30T08:59:55;100872.25;;;19.49;67.59
76352;BME280;65179;47.786;19.138;2023-09-30T09:02:21;100878.69;;;19.70;66.86
76352;BME280;65179;47.786;19.138;2023-09-30T09:04:47;100882.56;;;19.74;66.20
76352;BME280;65179;47.786;19.138;2023-09-30T09:07:12;100869.28;;;19.65;65.94
76352;BME280;65179;47.786;19.138;2023-09-30T09:09:38;100874.88;;;19.81;65.86
76352;BME280;65179;47.786;19.138;2023-09-30T09:12:03;100868.28;;;19.87;65.52
76352;BME280;65179;47.786;19.138;2023-09-30T09:14:40;100875.16;;;19.84;65.38
76352;BME280;65179;47.786;19.138;2023-09-30T09:17:07;100877.97;;;19.94;64.38
76352;BME280;65179;47.786;19.138;2023-09-30T09:19:34;100876.59;;;19.92;63.73
76352;BME280;65179;47.786;19.138;2023-09-30T09:22:01;100880.16;;;19.97;64.18
76352;BME280;65179;47.786;19.138;2023-09-30T09:24:37;100874.34;;;19.89;63.05
76352;BME280;65179;47.786;19.138;2023-09-30T09:27:12;100871.06;;;19.92;63.96
76352;BME280;65179;47.786;19.138;2023-09-30T09:29:38;100868.59;;;19.95;64.07
76352;BME280;65179;47.786;19.138;2023-09-30T09:32:17;100866.66;;;19.96;64.00
76352;BME280;65179;47.786;19.138;2023-09-30T09:34:43;100861.69;;;19.93;63.58
76352;BME280;65179;47.786;19.138;2023-09-30T09:37:21;100857.03;;;19.98;64.17
76352;BME280;65179;47.786;19.138;2023-09-30T09:39:55;100851.75;;;19.87;63.55
76352;BME280;65179;47.786;19.138;2023-09-30T09:42:31;100854.28;;;19.98;64.05
76352;BME280;65179;47.786;19.138;2023-09-30T09:45:02;100854.59;;;20.12;63.26
76352;BME280;65179;47.786;19.138;2023-09-30T09:47:29;100847.94;;;20.08;63.79
76352;BME280;65179;47.786;19.138;2023-09-30T09:49:57;100850.16;;;20.11;63.63
76352;BME280;65179;47.786;19.138;2023-09-30T09:52:23;100858.50;;;20.21;63.76
76352;BME280;65179;47.786;19.138;2023-09-30T09:54:50;100851.88;;;20.22;62.91
76352;BME280;65179;47.786;19.138;2023-09-30T09:57:18;100856.59;;;20.31;63.22
76352;BME280;65179;47.786;19.138;2023-09-30T09:59:46;100858.00;;;20.54;62.87
76352;BME280;65179;47.786;19.138;2023-09-30T10:02:14;100862.44;;;20.75;61.97
76352;BME280;65179;47.786;19.138;2023-09-30T10:04:44;100846.44;;;20.77;62.30
76352;BME280;65179;47.786;19.138;2023-09-30T10:07:21;100850.03;;;20.78;62.14
76352;BME280;65179;47.786;19.138;2023-09-30T10:09:49;100860.53;;;20.96;61.49
76352;BME280;65179;47.786;19.138;2023-09-30T10:12:17;100860.50;;;21.16;61.01
76352;BME280;65179;47.786;19.138;2023-09-30T10:14:43;100863.00;;;21.23;60.17
76352;BME280;65179;47.786;19.138;2023-09-30T10:17:09;100856.38;;;21.19;59.93
76352;BME280;65179;47.786;19.138;2023-09-30T10:19:35;100858.59;;;21.17;60.29
76352;BME280;65179;47.786;19.138;2023-09-30T10:24:45;100847.53;;;21.11;60.30
76352;BME280;65179;47.786;19.138;2023-09-30T10:35:19;100853.06;;;20.86;61.20
76352;BME280;65179;47.786;19.138;2023-09-30T10:37:45;100845.34;;;20.83;61.44
76352;BME280;65179;47.786;19.138;2023-09-30T10:40:27;100854.16;;;20.60;61.73
76352;BME280;65179;47.786;19.138;2023-09-30T10:42:53;100847.81;;;20.65;62.06
76352;BME280;65179;47.786;19.138;2023-09-30T10:50:51;100850.00;;;20.53;62.75
76352;BME280;65179;47.786;19.138;2023-09-30T10:53:17;100849.47;;;20.66;62.77
76352;BME280;65179;47.786;19.138;2023-09-30T10:55:45;100854.16;;;20.55;62.92
76352;BME280;65179;47.786;19.138;2023-09-30T10:58:12;100844.22;;;20.44;63.26
76352;BME280;65179;47.786;19.138;2023-09-30T11:00:37;100853.59;;;20.48;63.25
76352;BME280;65179;47.786;19.138;2023-09-30T11:03:04;100856.31;;;20.38;64.03
76352;BME280;65179;47.786;19.138;2023-09-30T11:05:31;100842.81;;;20.42;63.90
76352;BME280;65179;47.786;19.138;2023-09-30T11:08:02;100839.78;;;20.43;64.20
76352;BME280;65179;47.786;19.138;2023-09-30T11:10:28;100847.53;;;20.46;64.25
76352;BME280;65179;47.786;19.138;2023-09-30T11:12:57;100833.75;;;20.61;63.89
76352;BME280;65179;47.786;19.138;2023-09-30T11:15:24;100833.97;;;20.34;64.69
76352;BME280;65179;47.786;19.138;2023-09-30T11:17:53;100847.50;;;20.41;64.71
76352;BME280;65179;47.786;19.138;2023-09-30T11:20:18;100841.16;;;20.40;64.76
76352;BME280;65179;47.786;19.138;2023-09-30T11:22:45;100839.22;;;20.26;65.50
76352;BME280;65179;47.786;19.138;2023-09-30T11:25:18;100842.00;;;20.31;65.72
76352;BME280;65179;47.786;19.138;2023-09-30T11:27:45;100839.78;;;20.43;65.06
76352;BME280;65179;47.786;19.138;2023-09-30T11:30:12;100838.16;;;20.42;65.51
76352;BME280;65179;47.786;19.138;2023-09-30T11:32:38;100848.03;;;20.38;65.61
76352;BME280;65179;47.786;19.138;2023-09-30T11:35:09;100837.75;;;20.18;65.94
76352;BME280;65179;47.786;19.138;2023-09-30T11:37:34;100830.88;;;20.16;65.91
76352;BME280;65179;47.786;19.138;2023-09-30T11:40:11;100817.69;;;20.23;65.57
76352;BME280;65179;47.786;19.138;2023-09-30T11:42:36;100842.53;;;20.28;66.10
76352;BME280;65179;47.786;19.138;2023-09-30T11:45:02;100843.06;;;20.25;65.89
76352;BME280;65179;47.786;19.138;2023-09-30T11:47:28;100839.41;;;20.14;66.18
76352;BME280;65179;47.786;19.138;2023-09-30T11:49:55;100836.41;;;20.16;66.19
76352;BME280;65179;47.786;19.138;2023-09-30T11:52:27;100838.84;;;20.12;66.20
76352;BME280;65179;47.786;19.138;2023-09-30T11:54:53;100846.03;;;20.08;66.51
76352;BME280;65179;47.786;19.138;2023-09-30T11:57:18;100835.53;;;20.10;66.16
76352;BME280;65179;47.786;19.138;2023-09-30T11:59:45;100847.47;;;20.21;66.11
76352;BME280;65179;47.786;19.138;2023-09-30T12:02:12;100831.44;;;20.18;65.98
76352;BME280;65179;47.786;19.138;2023-09-30T12:04:38;100833.09;;;20.19;65.92
76352;BME280;65179;47.786;19.138;2023-09-30T12:07:04;100840.28;;;20.20;65.88
76352;BME280;65179;47.786;19.138;2023-09-30T12:09:29;100828.09;;;20.11;66.00
76352;BME280;65179;47.786;19.138;2023-09-30T12:11:56;100839.19;;;20.21;65.83
76352;BME280;65179;47.786;19.138;2023-09-30T12:14:23;100833.91;;;20.14;65.88
76352;BME280;65179;47.786;19.138;2023-09-30T12:16:49;100833.91;;;20.19;65.67
76352;BME280;65179;47.786;19.138;2023-09-30T12:19:16;100833.13;;;20.24;65.61
76352;BME280;65179;47.786;19.138;2023-09-30T12:21:43;100839.22;;;20.26;65.62
76352;BME280;65179;47.786;19.138;2023-09-30T12:24:12;100840.87;;;20.27;66.16
76352;BME280;65179;47.786;19.138;2023-09-30T12:26:45;100833.16;;;20.29;66.22
76352;BME280;65179;47.786;19.138;2023-09-30T12:29:20;100828.19;;;20.31;66.04
76352;BME280;65179;47.786;19.138;2023-09-30T12:31:48;100839.25;;;20.46;65.81
76352;BME280;65179;47.786;19.138;2023-09-30T12:34:14;100824.34;;;20.42;65.84
76352;BME280;65179;47.786;19.138;2023-09-30T12:36:40;100838.69;;;20.49;66.04
76352;BME280;65179;47.786;19.138;2023-09-30T12:39:07;100832.06;;;20.50;65.96
76352;BME280;65179;47.786;19.138;2023-09-30T12:41:45;100822.69;;;20.56;66.09
76352;BME280;65179;47.786;19.138;2023-09-30T13:00:49;100866.41;;;21.94;64.11
76352;BME280;65179;47.786;19.138;2023-09-30T13:03:15;100864.34;;;22.19;63.90
76352;BME280;65179;47.786;19.138;2023-09-30T13:05:41;100860.13;;;22.27;63.39
76352;BME280;65179;47.786;19.138;2023-09-30T13:08:06;100851.19;;;22.45;64.61
76352;BME280;65179;47.786;19.138;2023-09-30T13:10:32;100848.44;;;22.40;65.18